Language selection

My Weather Profile Weather Topics  | 

Belcher - northern half: Past 24 Hour Conditions

 

Peawanuck Airport

12:00 PM CST 28 January 2022
Disclaimer

This table is a summary of hourly weather conditions for the past 24 hours.
Please note that these observations might not always be representative of weather conditions over their associated marine area.

Date / Time
(CST)
Wind(knots) Conditions Visibility(km) Pressure(kPa) Air tempC) Relative humidity(%) Dew pointC) Wind Chill
28 January 2022
12:00 W 7 Sunny 16 101.9 -24 66 -29 -34
11:00 W 5 Sunny 16 101.9 -26 68 -30 -34
10:00 W 11 Sunny 16 101.9 -27 72 -30 -39
9:00 W 9 Sunny 16 101.9 -28 73 -31 -39
8:00 WSW 6 Sunny 16 101.8 -29 75 -32 -38
7:00 WSW 7 Clear 16 101.8 -29 75 -32 -40
6:00 WSW 6 Clear 16 101.8 -28 75 -31 -38
5:00 WSW 5 Clear 16 101.8 -28 76 -31 -36
4:00 WSW 6 Clear 16 101.8 -28 74 -31 -37
3:00 WSW 7 Partly Cloudy 16 101.8 -27 74 -31 -37
2:00 WSW 5 Cloudy 16 101.8 -27 74 -30 -35
1:00 WSW 6 Mainly Clear 16 101.8 -28 73 -31 -37
0:00 WSW 8 Partly Cloudy 16 101.8 -28 73 -31 -38
27 January 2022
23:00 W 6 Mostly Cloudy 16 101.8 -27 73 -31 -37
22:00 WSW 6 Mainly Clear 16 101.8 -28 72 -31 -37
21:00 W 6 Clear 16 101.8 -27 70 -30 -35
20:00 W 7 Cloudy 16 101.8 -26 69 -30 -35
19:00 W 10 Clear 16 101.8 -26 67 -30 -37
18:00 W 8 gust 16 Clear 16 101.8 -26 67 -30 -36
17:00 W 10 gust 18 Clear 16 101.7 -25 66 -30 -36
16:00 W 12 gust 19 Sunny 16 101.6 -23 64 -28 -35
15:00 WNW 13 gust 24 Partly Cloudy 13 101.5 -23 61 -28 -35
14:00 WNW 16 gust 27 Haze 8 101.3 -22 63 -27 -35
13:00 WNW 14 gust 27 Light Snow 6 101.2 -21 62 -27 -34
12:00 WNW 17 gust 23 Light Snow 1 101.1 -22 71 -26 -36

Zoom-in to make a selection

Map of Hudson - Hudson Bay marine weather areas Arviat Airport Baker Lake Airport Chesterfield Inlet Airport Coral Harbour Airport Rankin Inlet Airport Sanikiluaq Airport Whale Cove Airport Kinngait (Cape Dorset Airport) Iqaluit Airport Wager Bay Kimmirut Airport Churchill Airport Fort Severn Airport Peawanuck Airport Moosonee Airport Eastmain Airport La Grande Rivière Airport Waskaganish Airport Wemindji Airport Akulivik Airport Inukjuak Airport Ivujivik Airport Kuujjuarapik Airport Puvirnituq Airport Umiujaq Airport Aupaluk Airport Kangiqsujuaq Airport Kangirsuk Airport Kangiqsualujjuaq Airport Kuujjuaq Airport Quaqtaq Airport Salluit Airport Tasiujaq Airport Cape Kakkiviak
Legend:
buoy Buoy
land station Land Station

Hudson - Hudson Bay Area

Another Region

What we are doing

Features

Hello Weather

Hello Weather: our upgraded telephone weather service is here. 1-833-794-3556 or 1-833-79HELLO.

Date modified: